Time;durP1;ratioP1;P1;durP2;ratioP2;P2;SDS_P1;SDS_P2;PMS_P1;PMS_P2;Temp;Humidity;BMP_temperature;BMP_pressure;BME280_temperature;BME280_humidity;BME280_pressure;Samples;Min_cycle;Max_cycle;Signal;HPM_P1;HPM_P2
2022/01/25 00:08:20;;;;;;;95.10;35.60;;;;;;;-0.54;98.03;100926.12;103556;1300;24328;-25
2022/01/25 00:08:24;;;;;;;92.30;34.30;;;;;;;-0.47;98.95;100916.91;103557;1302;24367;-29
2022/01/25 00:26:39;;;;;;;72.60;24.90;;;;;;;-0.20;100.00;100907.10;103490;1300;24322;-29
2022/01/25 00:31:36;;;;;;;91.60;32.80;;;;;;;-0.23;100.00;100897.19;103544;1302;24388;-25
2022/01/25 00:34:02;;;;;;;82.10;32.10;;;;;;;-0.20;100.00;100894.42;103563;1302;24175;-25
2022/01/25 00:36:28;;;;;;;85.30;35.10;;;;;;;-0.16;100.00;100894.52;103529;1301;25346;-26
2022/01/25 00:38:54;;;;;;;80.90;31.70;;;;;;;0.05;99.92;100890.98;103483;1300;24170;-24
2022/01/25 00:41:20;;;;;;;87.50;32.30;;;;;;;0.06;99.03;100883.70;103583;1303;24203;-28
2022/01/25 00:43:46;;;;;;;79.50;31.30;;;;;;;0.11;98.93;100883.92;103426;1302;24246;-24
2022/01/25 00:46:12;;;;;;;83.80;34.00;;;;;;;0.02;98.80;100884.63;103540;1301;24180;-29
2022/01/25 00:56:04;;;;;;;87.80;33.60;;;;;;;-0.15;100.00;100880.23;103496;1300;24226;-25
2022/01/25 00:58:30;;;;;;;78.20;33.20;;;;;;;-0.08;100.00;100881.04;103579;1302;24281;-28
2022/01/25 01:00:57;;;;;;;83.60;31.00;;;;;;;0.09;99.92;100876.83;103502;1302;24344;-31
2022/01/25 01:03:22;;;;;;;107.40;39.00;;;;;;;-0.03;99.79;100879.65;103503;1302;22524;-30
2022/01/25 01:05:48;;;;;;;83.70;31.70;;;;;;;0.16;99.34;100874.98;103547;1300;24237;-29
2022/01/25 01:08:14;;;;;;;77.40;28.70;;;;;;;-0.14;99.82;100870.63;103519;1300;24519;-26
2022/01/25 01:10:39;;;;;;;90.40;32.60;;;;;;;-0.16;100.00;100862.68;103489;1302;24192;-30
2022/01/25 01:15:43;;;;;;;77.60;29.50;;;;;;;0.09;100.00;100855.34;103501;1302;24232;-30
2022/01/25 01:30:45;;;;;;;79.20;30.30;;;;;;;0.17;99.98;100844.63;103537;1300;24222;-30
2022/01/25 01:38:18;;;;;;;65.80;31.00;;;;;;;0.11;99.99;100833.91;103465;1300;24301;-26
2022/01/25 01:43:19;;;;;;;71.20;28.40;;;;;;;0.07;100.00;100831.02;103506;1300;24175;-33
2022/01/25 01:48:27;;;;;;;65.90;21.60;;;;;;;0.13;100.00;100824.80;103556;1298;24185;-29
2022/01/25 01:50:54;;;;;;;62.30;24.80;;;;;;;0.19;100.00;100821.27;103452;1300;24369;-26
2022/01/25 01:53:19;;;;;;;73.70;25.50;;;;;;;0.14;100.00;100822.28;103484;1300;24287;-29
2022/01/25 01:55:45;;;;;;;67.50;30.10;;;;;;;0.15;100.00;100819.03;103532;1300;24214;-27
2022/01/25 01:58:11;;;;;;;59.30;24.80;;;;;;;0.02;100.00;100815.64;103546;1300;24208;-29
2022/01/25 02:00:39;;;;;;;65.80;24.70;;;;;;;-0.00;100.00;100810.48;103470;1300;24343;-25
2022/01/25 02:03:05;;;;;;;71.00;27.10;;;;;;;0.06;100.00;100803.02;103512;1300;24185;-29
2022/01/25 02:05:31;;;;;;;50.30;21.60;;;;;;;0.11;100.00;100799.59;103439;1300;24321;-29
2022/01/25 02:07:57;;;;;;;66.70;26.60;;;;;;;0.08;100.00;100798.02;103563;1300;24237;-25
2022/01/25 02:10:23;;;;;;;35.70;18.30;;;;;;;0.13;100.00;100798.58;103559;1300;24335;-28
2022/01/25 02:12:51;;;;;;;33.80;17.30;;;;;;;0.23;100.00;100805.00;103537;1300;22620;-29
2022/01/25 02:15:17;;;;;;;63.80;24.80;;;;;;;0.62;99.06;100800.73;103448;1302;24343;-25
2022/01/25 02:22:22;;;;;;;33.60;14.40;;;;;;;0.35;99.09;100811.12;103517;1300;25112;-30
2022/01/25 02:22:58;;;;;;;60.40;18.80;;;;;;;0.02;100.00;100805.41;103593;1300;24147;-30
2022/01/25 02:25:24;;;;;;;59.50;22.90;;;;;;;-0.04;100.00;100800.17;103506;1300;24386;-28
2022/01/25 02:27:50;;;;;;;39.30;18.20;;;;;;;-0.06;100.00;100798.70;103546;1300;24281;-29
2022/01/25 02:30:16;;;;;;;63.30;25.40;;;;;;;0.05;100.00;100799.39;103498;1300;24233;-31
2022/01/25 02:32:42;;;;;;;58.90;28.20;;;;;;;-0.03;100.00;100795.83;103550;1300;23959;-25
2022/01/25 02:35:08;;;;;;;62.10;25.80;;;;;;;-0.01;100.00;100796.80;103574;1301;24231;-31
2022/01/25 02:37:34;;;;;;;53.70;22.00;;;;;;;0.21;100.00;100794.73;103550;1300;22656;-28
2022/01/25 02:40:00;;;;;;;48.70;18.00;;;;;;;0.13;100.00;100798.38;103523;1300;24176;-29
2022/01/25 02:42:26;;;;;;;57.90;16.60;;;;;;;0.17;100.00;100799.75;103552;1300;24367;-28
2022/01/25 02:44:52;;;;;;;64.60;19.20;;;;;;;0.12;100.00;100801.45;103549;1300;24279;-26
2022/01/25 02:49:48;;;;;;;72.30;20.40;;;;;;;0.39;100.00;100796.55;103553;1302;24296;-25
2022/01/25 02:52:14;;;;;;;30.90;12.40;;;;;;;0.16;100.00;100796.96;103511;1301;24281;-31
2022/01/25 02:54:41;;;;;;;42.10;21.30;;;;;;;0.33;100.00;100795.38;103529;1300;24300;-26
2022/01/25 02:57:07;;;;;;;62.00;22.00;;;;;;;0.19;100.00;100794.65;103622;1300;24338;-29
2022/01/25 02:59:32;;;;;;;39.30;14.80;;;;;;;0.27;100.00;100794.16;103541;1300;24337;-29
2022/01/25 03:01:58;;;;;;;39.10;11.60;;;;;;;0.16;100.00;100788.14;103572;1300;24222;-27
2022/01/25 03:04:24;;;;;;;43.10;15.00;;;;;;;0.32;100.00;100778.34;103512;1300;24286;-25
2022/01/25 03:06:51;;;;;;;25.10;10.70;;;;;;;0.24;100.00;100778.52;103502;1300;24319;-29
2022/01/25 03:09:16;;;;;;;51.20;16.70;;;;;;;0.27;100.00;100774.30;103488;1300;24223;-31
2022/01/25 03:11:45;;;;;;;45.30;12.40;;;;;;;0.18;100.00;100773.60;103526;1300;24206;-26
2022/01/25 03:14:11;;;;;;;41.30;16.60;;;;;;;0.40;100.00;100775.19;103472;1302;24213;-25
2022/01/25 03:16:44;;;;;;;41.80;17.10;;;;;;;0.21;100.00;100770.73;103503;1300;24251;-29
2022/01/25 03:21:40;;;;;;;38.60;16.20;;;;;;;0.37;100.00;100771.35;103472;1300;24217;-26
2022/01/25 03:24:06;;;;;;;47.10;16.80;;;;;;;0.38;100.00;100774.80;103537;1300;24252;-31
2022/01/25 03:26:33;;;;;;;37.30;12.50;;;;;;;0.32;100.00;100772.70;103501;1300;24383;-29
2022/01/25 03:29:00;;;;;;;53.80;20.90;;;;;;;0.52;100.00;100769.50;103549;1300;24410;-29
2022/01/25 03:31:26;;;;;;;29.70;12.80;;;;;;;0.33;100.00;100771.39;103615;1300;24224;-26
2022/01/25 03:33:51;;;;;;;17.80;9.20;;;;;;;0.33;100.00;100772.29;103572;1300;24256;-29
2022/01/25 03:36:17;;;;;;;42.90;15.10;;;;;;;0.46;100.00;100777.11;103548;1300;24279;-26
2022/01/25 03:38:44;;;;;;;37.90;18.50;;;;;;;0.38;100.00;100775.52;103558;1300;24478;-29
2022/01/25 03:41:12;;;;;;;28.30;12.80;;;;;;;0.46;100.00;100776.38;103533;1301;22842;-29
2022/01/25 03:43:38;;;;;;;42.40;15.10;;;;;;;0.60;100.00;100779.04;103531;1300;22517;-26
2022/01/25 03:46:11;;;;;;;22.80;9.80;;;;;;;0.49;100.00;100779.02;103559;1300;24226;-29
2022/01/25 03:51:06;;;;;;;17.10;8.40;;;;;;;0.39;100.00;100778.79;103502;1300;24229;-26
2022/01/25 03:53:31;;;;;;;24.20;11.30;;;;;;;0.42;100.00;100777.73;103497;1300;24325;-30
2022/01/25 03:55:57;;;;;;;31.40;13.70;;;;;;;0.46;100.00;100773.20;103479;1300;24220;-29
2022/01/25 03:58:23;;;;;;;33.80;15.00;;;;;;;0.33;100.00;100765.29;103521;1300;24379;-30
2022/01/25 04:00:49;;;;;;;32.20;13.90;;;;;;;0.29;100.00;100764.96;103515;1300;24323;-26
2022/01/25 04:03:23;;;;;;;25.60;14.30;;;;;;;0.38;100.00;100757.86;103508;1300;24230;-26
2022/01/25 04:05:51;;;;;;;26.50;8.90;;;;;;;0.49;100.00;100757.85;103536;1300;24436;-32
2022/01/25 04:08:17;;;;;;;25.20;11.20;;;;;;;0.32;100.00;100762.30;103611;1300;24438;-26
2022/01/25 04:10:43;;;;;;;27.60;10.40;;;;;;;0.39;100.00;100764.70;103102;1300;517096;-29
2022/01/25 04:13:09;;;;;;;20.20;8.00;;;;;;;0.34;100.00;100767.80;103522;1300;24228;-25
2022/01/25 04:15:39;;;;;;;41.60;13.90;;;;;;;0.20;100.00;100763.77;103534;1299;24325;-26
2022/01/25 04:20:35;;;;;;;42.20;13.90;;;;;;;0.22;100.00;100766.64;103561;1298;24470;-29
2022/01/25 04:25:30;;;;;;;29.80;10.80;;;;;;;0.18;100.00;100763.15;103589;1300;22676;-30
2022/01/25 04:27:56;;;;;;;30.40;12.80;;;;;;;0.35;100.00;100760.69;103471;1300;24362;-29
2022/01/25 04:30:21;;;;;;;44.20;14.40;;;;;;;0.24;100.00;100754.88;103553;1300;24213;-29
2022/01/25 04:32:56;;;;;;;26.90;11.80;;;;;;;0.18;100.00;100750.01;103569;1300;24274;-26
2022/01/25 04:50:53;;;;;;;36.30;10.60;;;;;;;0.41;100.00;100741.12;103568;1300;24342;-24
2022/01/25 04:53:12;;;;;;;42.20;12.50;;;;;;;0.28;100.00;100734.73;103497;1300;24435;-29
2022/01/25 04:58:14;;;;;;;30.80;11.50;;;;;;;0.26;100.00;100735.42;103534;1300;24208;-26
2022/01/25 05:00:39;;;;;;;30.10;12.40;;;;;;;0.33;100.00;100736.88;103652;1300;24150;-30
2022/01/25 05:03:13;;;;;;;18.30;7.40;;;;;;;0.49;100.00;100733.91;103616;1300;24419;-29
2022/01/25 05:05:53;;;;;;;18.50;7.30;;;;;;;0.39;100.00;100730.86;103584;1300;24333;-26
2022/01/25 05:10:52;;;;;;;13.60;6.40;;;;;;;0.42;100.00;100731.73;103483;1300;24449;-25
2022/01/25 05:16:14;;;;;;;35.10;9.90;;;;;;;0.35;100.00;100726.49;103522;1300;24439;-26
2022/01/25 05:18:45;;;;;;;29.10;6.90;;;;;;;0.55;100.00;100725.05;103455;1300;24174;-30
2022/01/25 05:23:40;;;;;;;9.00;5.50;;;;;;;0.38;100.00;100743.59;103530;1302;24199;-30
2022/01/25 05:26:06;;;;;;;25.30;7.80;;;;;;;0.46;100.00;100737.30;103485;1300;24316;-28
2022/01/25 05:28:32;;;;;;;19.50;8.40;;;;;;;0.52;100.00;100731.04;103454;1300;22642;-26
2022/01/25 05:30:58;;;;;;;15.20;6.90;;;;;;;0.53;100.00;100730.11;103564;1300;24196;-27
2022/01/25 05:33:24;;;;;;;21.20;7.80;;;;;;;0.47;100.00;100735.98;103504;1302;26243;-29
2022/01/25 05:35:50;;;;;;;22.50;10.70;;;;;;;0.27;100.00;100738.31;103585;1300;24294;-29
2022/01/25 05:38:15;;;;;;;24.40;10.80;;;;;;;0.22;100.00;100733.00;103547;1300;24156;-29
2022/01/25 05:40:46;;;;;;;25.30;10.90;;;;;;;0.32;100.00;100733.60;103527;1300;24276;-27
2022/01/25 05:46:10;;;;;;;19.30;7.50;;;;;;;0.39;100.00;100730.70;103576;1301;24188;-26
2022/01/25 05:48:36;;;;;;;20.00;5.90;;;;;;;0.23;100.00;100724.45;103528;1300;24716;-25
2022/01/25 05:51:02;;;;;;;28.20;10.30;;;;;;;0.33;100.00;100718.02;103534;1300;24342;-30
2022/01/25 05:53:27;;;;;;;21.70;8.60;;;;;;;0.34;100.00;100716.39;103538;1300;24225;-29
2022/01/25 05:55:53;;;;;;;9.70;5.90;;;;;;;0.40;100.00;100710.17;103609;1300;24192;-26
2022/01/25 05:58:19;;;;;;;21.20;8.30;;;;;;;0.47;100.00;100705.66;103510;1302;24258;-32
2022/01/25 06:00:45;;;;;;;23.30;8.30;;;;;;;0.44;100.00;100710.44;103544;1300;24279;-30
2022/01/25 06:03:11;;;;;;;13.30;6.40;;;;;;;0.45;100.00;100707.77;103516;1300;24222;-30
2022/01/25 06:05:37;;;;;;;23.50;9.00;;;;;;;0.37;100.00;100702.30;103551;1300;22647;-25
2022/01/25 06:08:03;;;;;;;20.80;8.90;;;;;;;0.38;100.00;100695.86;103575;1300;24278;-25
2022/01/25 06:10:30;;;;;;;25.70;10.60;;;;;;;0.22;100.00;100696.51;103514;1300;24344;-29
2022/01/25 06:12:55;;;;;;;20.00;7.80;;;;;;;0.25;100.00;100699.90;103644;1300;22911;-26
2022/01/25 06:15:22;;;;;;;20.70;9.00;;;;;;;0.23;100.00;100702.29;103539;1300;24238;-27
2022/01/25 06:17:49;;;;;;;33.40;9.60;;;;;;;0.19;100.00;100705.01;103528;1302;24459;-26
2022/01/25 06:20:15;;;;;;;16.90;6.60;;;;;;;0.12;100.00;100706.18;103476;1300;24196;-27
2022/01/25 06:22:41;;;;;;;28.50;10.30;;;;;;;0.09;100.00;100703.54;103586;1300;24430;-30
2022/01/25 06:25:07;;;;;;;43.60;12.00;;;;;;;0.21;100.00;100693.77;103589;1300;24291;-27
2022/01/25 06:27:33;;;;;;;31.30;12.40;;;;;;;0.22;100.00;100694.77;103552;1300;24223;-31
2022/01/25 06:29:59;;;;;;;30.10;11.60;;;;;;;0.19;100.00;100699.53;103560;1300;24370;-30
2022/01/25 06:32:25;;;;;;;27.10;10.70;;;;;;;0.32;100.00;100695.34;103591;1302;24197;-26
2022/01/25 06:34:51;;;;;;;27.80;11.90;;;;;;;0.31;100.00;100691.70;103646;1300;24223;-26
2022/01/25 06:37:17;;;;;;;16.00;6.60;;;;;;;0.22;100.00;100697.73;103538;1300;24904;-30
2022/01/25 06:39:42;;;;;;;30.50;10.30;;;;;;;0.28;100.00;100685.77;103577;1300;24319;-30
2022/01/25 06:42:09;;;;;;;34.60;11.90;;;;;;;0.35;100.00;100683.69;103514;1300;24213;-30
2022/01/25 06:44:37;;;;;;;17.30;6.70;;;;;;;0.37;100.00;100674.27;103522;1300;24280;-29
2022/01/25 06:47:03;;;;;;;26.50;10.40;;;;;;;0.55;100.00;100672.55;103615;1300;24306;-25
2022/01/25 06:49:29;;;;;;;26.30;10.50;;;;;;;0.61;100.00;100662.15;103505;1300;22518;-25
2022/01/25 06:51:55;;;;;;;31.50;11.70;;;;;;;0.30;100.00;100668.91;103467;1300;24144;-30
2022/01/25 06:54:20;;;;;;;32.80;13.00;;;;;;;0.26;100.00;100674.95;103400;1302;24255;-26
2022/01/25 06:56:46;;;;;;;30.50;10.80;;;;;;;0.23;100.00;100681.00;103656;1300;24285;-31
2022/01/25 06:59:12;;;;;;;30.20;9.70;;;;;;;0.27;100.00;100681.97;103445;1300;24305;-31
2022/01/25 07:01:38;;;;;;;26.00;10.40;;;;;;;0.34;100.00;100684.68;103543;1300;24365;-32
2022/01/25 07:04:04;;;;;;;29.00;11.30;;;;;;;0.42;100.00;100687.31;103501;1300;24198;-29
2022/01/25 07:06:29;;;;;;;22.30;9.50;;;;;;;0.44;100.00;100685.61;103579;1300;22614;-29
2022/01/25 07:08:55;;;;;;;24.70;11.80;;;;;;;0.47;100.00;100690.86;103526;1300;24342;-25
2022/01/25 07:11:21;;;;;;;22.00;9.80;;;;;;;0.42;100.00;100692.96;103540;1300;24224;-27
2022/01/25 07:13:47;;;;;;;19.50;7.90;;;;;;;0.53;100.00;100687.66;103522;1300;24217;-32
2022/01/25 07:16:13;;;;;;;28.70;11.00;;;;;;;0.66;100.00;100686.80;103473;1301;24339;-29
2022/01/25 07:18:39;;;;;;;22.20;9.70;;;;;;;0.72;100.00;100689.23;103535;1302;24207;-30
2022/01/25 07:21:04;;;;;;;29.70;12.90;;;;;;;0.75;100.00;100689.58;103624;1300;24317;-29
2022/01/25 07:23:30;;;;;;;33.80;12.80;;;;;;;0.81;100.00;100690.92;103621;1300;24295;-26
2022/01/25 07:25:56;;;;;;;28.10;12.20;;;;;;;0.85;100.00;100684.50;103598;1300;24247;-25
2022/01/25 07:28:21;;;;;;;41.60;12.90;;;;;;;0.86;100.00;100689.54;103631;1300;24305;-27
2022/01/25 07:30:47;;;;;;;33.60;13.50;;;;;;;0.96;100.00;100691.69;103431;1300;24176;-25
2022/01/25 07:33:13;;;;;;;26.10;9.60;;;;;;;0.76;100.00;100689.98;103609;1300;24229;-26
2022/01/25 07:35:40;;;;;;;34.70;11.10;;;;;;;0.73;100.00;100693.02;103554;1299;24325;-26
2022/01/25 07:38:07;;;;;;;22.90;10.10;;;;;;;0.77;100.00;100692.80;103569;1300;24207;-29
2022/01/25 07:40:35;;;;;;;25.60;10.00;;;;;;;0.79;100.00;100685.61;103458;1300;24341;-30
2022/01/25 07:43:02;;;;;;;25.50;9.60;;;;;;;0.73;100.00;100691.27;103587;1300;25112;-30
2022/01/25 07:45:34;;;;;;;14.80;7.30;;;;;;;0.66;100.00;100698.25;103557;1300;24310;-25
2022/01/25 07:48:01;;;;;;;21.40;8.40;;;;;;;0.77;100.00;100688.00;103606;1300;24224;-30
2022/01/25 07:50:27;;;;;;;15.50;7.30;;;;;;;0.84;100.00;100677.80;103660;1300;24245;-30
2022/01/25 07:52:54;;;;;;;21.80;8.80;;;;;;;0.84;100.00;100669.55;103445;1303;24339;-25
2022/01/25 07:55:20;;;;;;;18.70;8.00;;;;;;;0.82;100.00;100677.06;103588;1300;24355;-29
2022/01/25 07:57:45;;;;;;;20.60;7.80;;;;;;;0.88;100.00;100680.05;103423;1300;22511;-27
2022/01/25 08:00:12;;;;;;;15.20;7.40;;;;;;;0.89;100.00;100685.42;103570;1300;24347;-29
2022/01/25 08:02:38;;;;;;;18.50;8.30;;;;;;;0.99;100.00;100686.14;103618;1300;22508;-25
2022/01/25 08:05:04;;;;;;;26.00;10.40;;;;;;;1.08;100.00;100686.66;103602;1300;24175;-28
2022/01/25 08:07:29;;;;;;;30.00;16.30;;;;;;;1.08;100.00;100684.31;103594;1300;24416;-25
2022/01/25 08:09:55;;;;;;;23.90;11.80;;;;;;;0.92;100.00;100684.19;103576;1300;24160;-30
2022/01/25 08:12:21;;;;;;;31.00;12.30;;;;;;;0.90;100.00;100682.55;103571;1300;24300;-30
2022/01/25 08:14:48;;;;;;;21.90;11.40;;;;;;;0.83;100.00;100685.87;103547;1300;24294;-29
2022/01/25 08:17:16;;;;;;;24.40;11.30;;;;;;;1.03;100.00;100679.77;103660;1300;24332;-30
2022/01/25 08:19:44;;;;;;;30.10;13.50;;;;;;;1.13;100.00;100674.31;103505;1300;22509;-30
2022/01/25 08:22:10;;;;;;;44.60;20.10;;;;;;;1.14;100.00;100678.48;103577;1302;22686;-26
2022/01/25 08:24:36;;;;;;;23.80;10.80;;;;;;;0.94;100.00;100681.06;103446;1300;24184;-25
2022/01/25 08:27:02;;;;;;;32.30;13.00;;;;;;;0.87;100.00;100687.65;103608;1301;24213;-32
2022/01/25 08:29:28;;;;;;;20.40;9.30;;;;;;;0.98;100.00;100685.03;103525;1300;24451;-27
2022/01/25 08:31:54;;;;;;;19.70;9.30;;;;;;;1.07;100.00;100685.83;103552;1300;24302;-30
2022/01/25 08:34:19;;;;;;;19.70;8.00;;;;;;;1.16;100.00;100683.25;103488;1299;22526;-25
2022/01/25 08:36:45;;;;;;;10.80;3.50;;;;;;;1.19;100.00;100683.38;103548;1302;24332;-29
2022/01/25 08:39:11;;;;;;;10.30;5.00;;;;;;;1.29;100.00;100679.56;103561;1300;24403;-25
2022/01/25 08:41:37;;;;;;;10.50;6.60;;;;;;;1.22;100.00;100682.16;103507;1300;24253;-25
2022/01/25 08:44:02;;;;;;;17.20;6.30;;;;;;;1.21;100.00;100692.12;103391;1301;24205;-25
2022/01/25 08:46:28;;;;;;;14.60;7.20;;;;;;;1.18;100.00;100693.91;103488;1302;24317;-25
2022/01/25 08:48:54;;;;;;;18.60;7.00;;;;;;;1.21;100.00;100696.13;103482;1302;24403;-29
2022/01/25 08:51:19;;;;;;;19.10;7.20;;;;;;;1.15;100.00;100698.68;103510;1300;24230;-25
2022/01/25 08:53:45;;;;;;;13.80;6.10;;;;;;;1.15;100.00;100702.38;103510;1302;24178;-29
2022/01/25 08:56:11;;;;;;;16.40;7.00;;;;;;;1.17;100.00;100703.11;103562;1300;24608;-24
2022/01/25 08:58:37;;;;;;;12.80;6.00;;;;;;;1.20;100.00;100693.44;103531;1302;22523;-25
2022/01/25 09:01:03;;;;;;;11.10;5.90;;;;;;;1.27;100.00;100695.72;103470;1300;24237;-30
2022/01/25 09:03:29;;;;;;;11.60;6.30;;;;;;;1.19;100.00;100695.73;103545;1300;24238;-24
2022/01/25 09:05:55;;;;;;;13.00;5.20;;;;;;;1.15;100.00;100694.08;103570;1300;22518;-24
2022/01/25 09:08:22;;;;;;;18.80;7.70;;;;;;;1.12;100.00;100693.39;103448;1300;24180;-24
2022/01/25 09:10:51;;;;;;;17.30;7.00;;;;;;;1.15;100.00;100699.40;103529;1300;24248;-29
2022/01/25 09:13:18;;;;;;;13.90;6.00;;;;;;;1.18;100.00;100698.86;103600;1301;23120;-25
2022/01/25 09:15:44;;;;;;;11.40;5.50;;;;;;;1.23;100.00;100703.46;103520;1300;24185;-31
2022/01/25 09:18:10;;;;;;;22.40;7.40;;;;;;;1.21;100.00;100702.69;103519;1302;24302;-29
2022/01/25 09:20:35;;;;;;;18.70;5.30;;;;;;;1.33;99.98;100698.10;103561;1300;24406;-30
2022/01/25 09:23:01;;;;;;;13.50;5.40;;;;;;;1.27;99.58;100692.95;103549;1300;24259;-30
2022/01/25 09:25:27;;;;;;;12.90;6.70;;;;;;;1.32;99.33;100689.56;103646;1300;22891;-29
2022/01/25 09:27:53;;;;;;;10.60;4.80;;;;;;;1.25;99.23;100688.45;103541;1300;24193;-29
2022/01/25 09:30:19;;;;;;;12.70;4.90;;;;;;;1.22;99.60;100682.37;103489;1300;24414;-26
2022/01/25 09:32:46;;;;;;;4.70;3.00;;;;;;;1.19;99.68;100686.27;103689;1300;24326;-27
2022/01/25 09:35:11;;;;;;;12.80;7.40;;;;;;;1.25;99.43;100690.22;103560;1300;24459;-27
2022/01/25 09:37:39;;;;;;;10.20;4.30;;;;;;;1.28;99.31;100682.45;103553;1300;24259;-31
2022/01/25 09:40:06;;;;;;;7.50;3.30;;;;;;;1.42;98.88;100682.17;103726;1300;24346;-30
2022/01/25 09:42:31;;;;;;;11.10;5.40;;;;;;;1.60;97.66;100680.60;103489;1302;24255;-30
2022/01/25 09:44:59;;;;;;;10.30;6.40;;;;;;;1.65;96.94;100672.48;103522;1300;24332;-29
2022/01/25 09:47:25;;;;;;;9.90;4.70;;;;;;;1.72;96.11;100673.73;103540;1300;24205;-29
2022/01/25 09:49:51;;;;;;;10.70;4.50;;;;;;;1.70;95.93;100672.42;103533;1300;24352;-29
2022/01/25 09:52:17;;;;;;;9.00;5.10;;;;;;;1.73;95.48;100667.27;103582;1302;24269;-24
2022/01/25 09:54:42;;;;;;;14.60;4.20;;;;;;;1.65;95.93;100671.21;103468;1301;22644;-29
2022/01/25 09:57:08;;;;;;;8.40;4.00;;;;;;;1.64;95.75;100671.65;103559;1300;24190;-27
2022/01/25 09:59:34;;;;;;;9.30;5.40;;;;;;;1.80;95.50;100671.73;103520;1300;24257;-27
2022/01/25 10:01:59;;;;;;;21.80;8.70;;;;;;;1.70;95.08;100663.83;103508;1300;24294;-26
2022/01/25 10:04:30;;;;;;;16.20;8.30;;;;;;;1.69;95.14;100661.71;103478;1300;24218;-25
2022/01/25 10:06:56;;;;;;;16.70;6.30;;;;;;;1.77;94.45;100654.85;103611;1300;24319;-25
2022/01/25 10:09:22;;;;;;;6.90;4.60;;;;;;;1.62;95.22;100648.27;103536;1300;24185;-29
2022/01/25 10:11:49;;;;;;;2.20;1.30;;;;;;;1.89;94.23;100650.07;103546;1300;24281;-29
2022/01/25 10:14:15;;;;;;;2.90;2.30;;;;;;;1.83;94.09;100649.48;103538;1302;24200;-29
2022/01/25 10:16:43;;;;;;;4.20;3.60;;;;;;;1.95;93.28;100645.77;103574;1302;22641;-31
2022/01/25 10:19:11;;;;;;;6.60;3.80;;;;;;;1.89;93.43;100642.34;103565;1300;24374;-29
2022/01/25 10:21:38;;;;;;;6.20;3.40;;;;;;;2.12;92.36;100632.85;103596;1300;24037;-29
2022/01/25 10:24:08;;;;;;;6.30;3.10;;;;;;;2.32;91.32;100635.29;103709;1300;24182;-25
2022/01/25 10:26:36;;;;;;;7.20;3.30;;;;;;;2.17;91.22;100634.99;103553;1300;24278;-24
2022/01/25 10:29:03;;;;;;;11.60;5.90;;;;;;;1.97;92.16;100641.02;103614;1300;24315;-29
2022/01/25 10:31:34;;;;;;;7.10;4.40;;;;;;;1.81;93.65;100643.41;103543;1300;24530;-25
2022/01/25 10:34:00;;;;;;;11.50;4.80;;;;;;;1.85;94.49;100633.59;103660;1302;24421;-25
2022/01/25 10:36:26;;;;;;;9.30;4.60;;;;;;;1.90;94.13;100629.36;103630;1300;24240;-25
2022/01/25 10:38:53;;;;;;;5.50;3.60;;;;;;;1.85;94.22;100628.62;103587;1300;24335;-25
2022/01/25 10:41:20;;;;;;;11.40;5.60;;;;;;;1.66;94.93;100632.48;103616;1298;24253;-30
2022/01/25 10:43:47;;;;;;;10.50;5.80;;;;;;;1.70;95.83;100630.80;103662;1300;24239;-28
2022/01/25 10:46:17;;;;;;;8.70;5.80;;;;;;;1.75;95.12;100631.67;103607;1300;22524;-25
2022/01/25 10:48:47;;;;;;;15.60;6.90;;;;;;;1.80;95.32;100634.30;103767;1300;24304;-26
2022/01/25 10:51:16;;;;;;;5.80;3.20;;;;;;;1.79;95.00;100624.13;103581;1299;24226;-29
2022/01/25 10:53:41;;;;;;;12.20;5.70;;;;;;;1.74;95.03;100617.92;103609;1302;25338;-25
2022/01/25 10:56:08;;;;;;;5.70;3.10;;;;;;;1.66;95.37;100608.83;103568;1300;24173;-25
2022/01/25 10:58:40;;;;;;;13.10;3.70;;;;;;;1.80;94.51;100606.79;103581;1300;24201;-28
2022/01/25 11:01:06;;;;;;;10.60;5.70;;;;;;;1.63;94.95;100603.20;103522;1300;22718;-24
2022/01/25 11:03:35;;;;;;;9.10;5.20;;;;;;;1.68;94.66;100601.41;103634;1299;24605;-24
2022/01/25 11:06:07;;;;;;;6.30;3.00;;;;;;;1.80;93.43;100598.83;103655;1300;23130;-25
2022/01/25 11:08:35;;;;;;;10.10;4.40;;;;;;;1.77;93.90;100598.51;103578;1300;22561;-31
2022/01/25 11:11:03;;;;;;;10.20;4.90;;;;;;;1.95;92.85;100591.73;103551;1300;24295;-31
2022/01/25 11:15:56;;;;;;;9.20;5.30;;;;;;;1.80;94.02;100594.20;103597;1299;24192;-29
2022/01/25 11:18:22;;;;;;;5.70;3.30;;;;;;;1.91;94.17;100596.95;103618;1300;24166;-35
2022/01/25 11:20:50;;;;;;;6.50;4.30;;;;;;;2.15;91.68;100599.98;103596;1300;24313;-24
2022/01/25 11:23:16;;;;;;;7.10;3.50;;;;;;;1.91;92.40;100601.75;103607;1300;24337;-28
2022/01/25 11:25:42;;;;;;;11.00;4.40;;;;;;;1.85;92.90;100597.42;103524;1300;24301;-31
2022/01/25 11:28:08;;;;;;;10.10;5.30;;;;;;;1.77;93.87;100596.21;103556;1300;24341;-29
2022/01/25 11:30:35;;;;;;;11.50;5.80;;;;;;;1.84;94.23;100594.13;103348;1300;22519;-25
2022/01/25 11:33:01;;;;;;;10.90;5.40;;;;;;;1.83;94.46;100595.05;103585;1300;24242;-25
2022/01/25 11:35:27;;;;;;;10.00;3.70;;;;;;;1.82;94.02;100593.20;103583;1300;24280;-25
2022/01/25 11:37:53;;;;;;;9.00;5.10;;;;;;;1.82;94.11;100589.27;103622;1299;24330;-25
2022/01/25 11:40:22;;;;;;;11.60;6.20;;;;;;;1.98;93.85;100586.71;103574;1300;24201;-25
2022/01/25 11:42:48;;;;;;;12.20;5.20;;;;;;;1.84;94.09;100584.88;103638;1300;22564;-26
2022/01/25 11:45:14;;;;;;;7.60;3.20;;;;;;;1.86;94.34;100581.95;103573;1300;24211;-24
2022/01/25 11:47:40;;;;;;;3.40;2.60;;;;;;;2.24;93.15;100572.27;103563;1302;24325;-24
2022/01/25 11:50:09;;;;;;;8.10;5.20;;;;;;;2.28;91.66;100566.48;103592;1300;24467;-25
2022/01/25 11:52:35;;;;;;;8.50;4.80;;;;;;;2.28;92.03;100560.66;103676;1299;25127;-25
2022/01/25 11:55:07;;;;;;;4.60;2.70;;;;;;;2.08;92.67;100556.11;103524;1300;24207;-29
2022/01/25 11:57:33;;;;;;;7.10;4.00;;;;;;;1.85;93.58;100559.27;103574;1300;25343;-28
2022/01/25 11:59:59;;;;;;;6.90;4.00;;;;;;;2.05;93.61;100559.52;103466;1300;24249;-28
2022/01/25 12:02:32;;;;;;;8.00;4.00;;;;;;;2.23;92.22;100560.11;103566;1300;22552;-29
2022/01/25 12:05:04;;;;;;;5.70;2.90;;;;;;;2.16;92.19;100559.44;103595;1300;22515;-29
2022/01/25 12:07:38;;;;;;;6.00;4.50;;;;;;;2.15;92.86;100552.95;103587;1300;24602;-25
2022/01/25 12:10:13;;;;;;;4.10;2.10;;;;;;;2.23;91.40;100550.30;103177;1300;551723;-29
2022/01/25 12:12:40;;;;;;;13.80;5.80;;;;;;;2.36;91.51;100547.52;103535;1300;24341;-31
2022/01/25 12:15:14;;;;;;;8.00;3.50;;;;;;;2.17;92.14;100547.83;103515;1300;24214;-29
2022/01/25 12:17:39;;;;;;;2.20;2.00;;;;;;;2.19;92.16;100546.83;103653;1300;24002;-25
2022/01/25 12:20:18;;;;;;;9.10;4.90;;;;;;;2.10;92.11;100544.48;103524;1300;24371;-29
2022/01/25 12:22:47;;;;;;;5.00;2.80;;;;;;;2.44;90.64;100545.83;103574;1300;22588;-28
2022/01/25 12:25:25;;;;;;;8.10;3.30;;;;;;;2.17;91.12;100540.83;103641;1299;24297;-24
2022/01/25 12:27:56;;;;;;;7.30;3.40;;;;;;;2.16;91.16;100541.44;103587;1299;24269;-27
2022/01/25 12:30:25;;;;;;;8.10;5.30;;;;;;;2.01;92.16;100537.55;103571;1299;23937;-25
2022/01/25 12:32:55;;;;;;;9.40;4.80;;;;;;;2.23;91.87;100537.87;103556;1300;24172;-28
2022/01/25 12:35:31;;;;;;;5.20;3.20;;;;;;;2.44;90.99;100539.16;103649;1300;23114;-29
2022/01/25 12:37:58;;;;;;;10.80;6.90;;;;;;;2.30;91.61;100536.33;103523;1300;22520;-25
2022/01/25 12:40:25;;;;;;;8.80;5.00;;;;;;;2.30;91.99;100538.05;103605;1300;24278;-24
2022/01/25 12:42:53;;;;;;;12.60;6.50;;;;;;;2.56;90.67;100535.73;103548;1300;24310;-29
2022/01/25 12:45:19;;;;;;;17.20;8.80;;;;;;;2.64;89.38;100531.73;103602;1300;24167;-29
2022/01/25 12:47:51;;;;;;;12.40;5.60;;;;;;;2.52;89.46;100530.53;103595;1299;23929;-24
2022/01/25 12:50:17;;;;;;;9.90;5.10;;;;;;;2.20;91.37;100530.86;103558;1300;26125;-28